createdAt,value
2019-05-21T00:00:30.193Z,14.775085
2019-05-21T00:01:30.277Z,14.775085
2019-05-21T00:02:30.309Z,14.765015
2019-05-21T00:03:30.376Z,14.765015
2019-05-21T00:04:30.445Z,14.775085
2019-05-21T00:05:30.533Z,14.744873
2019-05-21T00:06:30.620Z,14.765015
2019-05-21T00:07:30.845Z,14.765015
2019-05-21T00:08:30.760Z,14.765015
2019-05-21T00:09:30.765Z,14.734802
2019-05-21T00:10:30.830Z,14.744873
2019-05-21T00:11:30.888Z,14.714661
2019-05-21T00:12:30.995Z,14.714661
2019-05-21T00:13:31.061Z,14.70459
2019-05-21T00:14:31.183Z,14.70459
2019-05-21T00:15:31.257Z,14.684448
2019-05-21T00:16:31.340Z,14.664307
2019-05-21T00:17:31.382Z,14.674377
2019-05-21T00:18:31.515Z,14.664307
2019-05-21T00:19:31.645Z,14.613953
2019-05-21T00:20:31.723Z,14.593811
2019-05-21T00:21:31.791Z,14.593811
2019-05-21T00:22:31.925Z,14.593811
2019-05-21T00:23:32.059Z,14.58374
2019-05-21T00:24:32.043Z,14.593811
2019-05-21T00:25:32.168Z,14.58374
2019-05-21T00:26:32.246Z,14.553528
2019-05-21T00:27:32.444Z,14.533386
2019-05-21T00:28:32.435Z,14.533386
2019-05-21T00:29:32.479Z,14.513245
2019-05-21T00:30:32.573Z,14.513245
2019-05-21T00:31:32.662Z,14.483032
2019-05-21T00:32:32.717Z,14.483032
2019-05-21T00:33:32.865Z,14.493103
2019-05-21T00:34:43.414Z,14.45282
2019-05-21T00:35:32.982Z,14.45282
2019-05-21T00:36:33.038Z,14.442749
2019-05-21T00:37:33.172Z,14.442749
2019-05-21T00:38:33.290Z,14.432678
2019-05-21T00:39:33.392Z,14.432678
2019-05-21T00:40:33.698Z,14.402466
2019-05-21T00:41:33.602Z,14.402466
2019-05-21T00:42:33.702Z,14.402466
2019-05-21T00:43:33.783Z,14.382324
2019-05-21T00:44:33.893Z,14.402466
2019-05-21T00:45:34.021Z,14.382324
2019-05-21T00:46:34.103Z,14.402466
2019-05-21T00:47:34.189Z,14.402466
2019-05-21T00:48:34.205Z,14.402466
2019-05-21T00:49:34.284Z,14.382324
2019-05-21T00:50:34.396Z,14.382324
2019-05-21T00:51:34.476Z,14.382324
2019-05-21T00:52:34.606Z,14.372253
2019-05-21T00:53:34.701Z,14.342041
2019-05-21T00:54:34.825Z,14.311829
2019-05-21T00:55:34.871Z,14.311829
2019-05-21T00:56:35.971Z,14.281616
2019-05-21T00:57:35.026Z,14.281616
2019-05-21T00:58:35.107Z,14.261475
2019-05-21T00:59:35.288Z,14.261475
2019-05-21T01:00:35.279Z,14.231262
2019-05-21T01:01:35.354Z,14.190979
2019-05-21T01:02:35.441Z,14.160767
2019-05-21T01:03:35.498Z,14.130554
2019-05-21T01:04:35.670Z,14.120483
2019-05-21T01:05:36.725Z,14.120483
2019-05-21T01:06:35.751Z,14.120483
2019-05-21T01:07:35.894Z,14.120483
2019-05-21T01:08:35.961Z,14.110413
2019-05-21T01:09:36.046Z,14.110413
2019-05-21T01:10:36.125Z,14.110413
2019-05-21T01:11:36.182Z,14.110413
2019-05-21T01:12:36.267Z,14.070129
2019-05-21T01:13:36.331Z,14.049988
2019-05-21T01:14:36.457Z,14.039917
2019-05-21T01:15:36.446Z,14.029846
2019-05-21T01:16:36.526Z,14.009705
2019-05-21T01:17:36.582Z,13.979492
2019-05-21T01:18:36.690Z,13.969421
2019-05-21T01:19:36.698Z,13.969421
2019-05-21T01:20:36.793Z,13.969421
2019-05-21T01:21:36.868Z,13.94928
2019-05-21T01:22:36.965Z,13.94928
2019-05-21T01:23:37.201Z,13.929138
2019-05-21T01:24:37.119Z,13.908997
2019-05-21T01:25:37.226Z,13.908997
2019-05-21T01:26:37.299Z,13.888855
2019-05-21T01:27:37.360Z,13.888855
2019-05-21T01:28:37.455Z,13.888855
2019-05-21T01:29:37.502Z,13.888855
2019-05-21T01:30:37.632Z,13.888855
2019-05-21T01:31:37.702Z,13.888855
2019-05-21T01:32:37.780Z,13.888855
2019-05-21T01:33:37.958Z,13.908997
2019-05-21T01:34:37.938Z,13.888855
2019-05-21T01:35:38.001Z,13.929138
2019-05-21T01:36:38.059Z,13.908997
2019-05-21T01:37:38.124Z,13.888855
2019-05-21T01:38:38.246Z,13.868713
2019-05-21T01:39:38.273Z,13.888855
2019-05-21T01:40:38.360Z,13.888855
2019-05-21T01:41:38.442Z,13.868713
2019-05-21T01:42:38.521Z,13.908997
2019-05-21T01:43:38.582Z,13.929138
2019-05-21T01:44:38.668Z,13.929138
2019-05-21T01:45:38.842Z,13.929138
2019-05-21T01:46:38.734Z,13.929138
2019-05-21T01:47:38.821Z,13.929138
2019-05-21T01:48:38.934Z,13.939209
2019-05-21T01:49:39.009Z,13.939209
2019-05-21T01:50:39.135Z,13.939209
2019-05-21T01:51:39.210Z,13.929138
2019-05-21T01:52:39.267Z,13.929138
2019-05-21T01:53:39.336Z,13.929138
2019-05-21T01:54:39.412Z,13.908997
2019-05-21T01:55:39.539Z,13.908997
2019-05-21T01:56:39.596Z,13.939209
2019-05-21T01:57:39.656Z,13.929138
2019-05-21T01:58:39.754Z,13.939209
2019-05-21T01:59:39.824Z,13.94928
2019-05-21T02:00:40.033Z,13.929138
2019-05-21T02:01:39.961Z,13.929138
2019-05-21T02:02:40.006Z,13.929138
2019-05-21T02:03:40.153Z,13.939209
2019-05-21T02:04:40.244Z,13.94928
2019-05-21T02:05:40.342Z,13.94928
2019-05-21T02:06:40.490Z,13.939209
2019-05-21T02:07:40.565Z,13.939209
2019-05-21T02:08:40.624Z,13.94928
2019-05-21T02:09:40.673Z,13.939209
2019-05-21T02:10:40.794Z,13.929138
2019-05-21T02:11:40.889Z,13.908997
2019-05-21T02:12:41.001Z,13.908997
2019-05-21T02:13:41.037Z,13.929138
2019-05-21T02:14:41.100Z,13.929138
2019-05-21T02:15:41.169Z,13.929138
2019-05-21T02:16:41.298Z,13.929138
2019-05-21T02:17:41.360Z,13.929138
2019-05-21T02:18:41.526Z,13.929138
2019-05-21T02:19:41.597Z,13.929138
2019-05-21T02:20:41.664Z,13.929138
2019-05-21T02:21:41.789Z,13.929138
2019-05-21T02:22:41.733Z,13.888855
2019-05-21T02:23:41.800Z,13.888855
2019-05-21T02:24:41.865Z,13.858643
2019-05-21T02:25:41.938Z,13.858643
2019-05-21T02:26:41.964Z,13.858643
2019-05-21T02:27:42.018Z,13.868713
2019-05-21T02:28:42.109Z,13.858643
2019-05-21T02:29:42.167Z,13.848572
2019-05-21T02:30:42.227Z,13.848572
2019-05-21T02:31:43.288Z,13.848572
2019-05-21T02:32:42.352Z,13.82843
2019-05-21T02:33:42.493Z,13.818359
2019-05-21T02:34:42.544Z,13.818359
2019-05-21T02:35:53.328Z,13.818359
2019-05-21T02:36:42.767Z,13.798218
2019-05-21T02:37:42.829Z,13.798218
2019-05-21T02:38:42.877Z,13.788147
2019-05-21T02:39:42.988Z,13.788147
2019-05-21T02:40:43.053Z,13.778076
2019-05-21T02:41:43.144Z,13.778076
2019-05-21T02:42:43.214Z,13.778076
2019-05-21T02:43:43.273Z,13.788147
2019-05-21T02:44:43.320Z,13.788147
2019-05-21T02:45:43.361Z,13.778076
2019-05-21T02:46:43.445Z,13.778076
2019-05-21T02:47:43.510Z,13.788147
2019-05-21T02:48:43.663Z,13.788147
2019-05-21T02:49:43.736Z,13.788147
2019-05-21T02:50:43.801Z,13.757935
2019-05-21T02:51:43.905Z,13.778076
2019-05-21T02:52:43.881Z,13.757935
2019-05-21T02:53:44.935Z,13.778076
2019-05-21T02:54:44.042Z,13.757935
2019-05-21T02:55:44.115Z,13.757935
2019-05-21T02:56:44.288Z,13.778076
2019-05-21T02:57:44.296Z,13.788147
2019-05-21T02:58:44.370Z,13.788147
2019-05-21T02:59:44.473Z,13.778076
2019-05-21T03:00:44.559Z,13.778076
2019-05-21T03:01:44.647Z,13.778076
2019-05-21T03:02:44.732Z,13.798218
2019-05-21T03:03:44.807Z,13.798218
2019-05-21T03:04:44.888Z,13.778076
2019-05-21T03:05:44.948Z,13.788147
2019-05-21T03:06:45.994Z,13.788147
2019-05-21T03:07:45.107Z,13.818359
2019-05-21T03:08:45.183Z,13.798218
2019-05-21T03:09:45.279Z,13.798218
2019-05-21T03:10:45.342Z,13.798218
2019-05-21T03:11:45.411Z,13.818359
2019-05-21T03:12:45.561Z,13.818359
2019-05-21T03:13:45.539Z,13.818359
2019-05-21T03:14:45.613Z,13.798218
2019-05-21T03:15:45.637Z,13.82843
2019-05-21T03:16:45.717Z,13.82843
2019-05-21T03:17:45.825Z,13.848572
2019-05-21T03:18:45.908Z,13.82843
2019-05-21T03:19:45.982Z,13.818359
2019-05-21T03:20:47.119Z,13.848572
2019-05-21T03:21:46.197Z,13.848572
2019-05-21T03:22:46.295Z,13.848572
2019-05-21T03:23:46.426Z,13.848572
2019-05-21T03:24:46.433Z,13.848572
2019-05-21T03:25:47.509Z,13.848572
2019-05-21T03:26:46.578Z,13.858643
2019-05-21T03:27:46.690Z,13.858643
2019-05-21T03:28:46.780Z,13.868713
2019-05-21T03:29:46.857Z,13.888855
2019-05-21T03:30:46.937Z,13.868713
2019-05-21T03:31:47.007Z,13.888855
2019-05-21T03:32:47.059Z,13.908997
2019-05-21T03:33:47.157Z,13.908997
2019-05-21T03:34:47.258Z,13.929138
2019-05-21T03:35:47.391Z,13.929138
2019-05-21T03:36:47.456Z,13.939209
2019-05-21T03:37:47.561Z,13.939209
2019-05-21T03:38:47.695Z,13.939209
2019-05-21T03:39:47.674Z,13.94928
2019-05-21T03:40:47.737Z,13.94928
2019-05-21T03:41:47.808Z,13.94928
2019-05-21T03:42:47.910Z,13.969421
2019-05-21T03:43:48.027Z,13.94928
2019-05-21T03:44:58.651Z,13.94928
2019-05-21T03:45:48.249Z,13.939209
2019-05-21T03:46:48.148Z,13.908997
2019-05-21T03:47:48.274Z,13.868713
2019-05-21T03:48:48.362Z,13.82843
2019-05-21T03:49:48.468Z,13.82843
2019-05-21T03:50:48.543Z,13.798218
2019-05-21T03:51:48.626Z,13.788147
2019-05-21T03:52:48.684Z,13.788147
2019-05-21T03:53:48.775Z,13.778076
2019-05-21T03:54:48.924Z,13.757935
2019-05-21T03:55:50.039Z,13.757935
2019-05-21T03:56:49.103Z,13.747864
2019-05-21T03:57:49.180Z,13.727722
2019-05-21T03:58:49.254Z,13.747864
2019-05-21T03:59:49.336Z,13.747864
2019-05-21T04:00:49.433Z,13.747864
2019-05-21T04:01:50.496Z,13.727722
2019-05-21T04:02:49.544Z,13.747864
2019-05-21T04:03:50.608Z,13.747864
2019-05-21T04:04:49.682Z,13.757935
2019-05-21T04:05:49.749Z,13.747864
2019-05-21T04:06:52.207Z,13.747864
2019-05-21T04:07:49.869Z,13.747864
2019-05-21T04:08:49.872Z,13.727722
2019-05-21T04:09:49.949Z,13.707581
2019-05-21T04:10:50.003Z,13.707581
2019-05-21T04:11:53.017Z,13.747864
2019-05-21T04:12:50.187Z,13.727722
2019-05-21T04:13:50.247Z,13.727722
2019-05-21T04:14:50.342Z,13.727722
2019-05-21T04:15:51.401Z,13.707581
2019-05-21T04:16:50.473Z,13.707581
2019-05-21T04:17:50.603Z,13.69751
2019-05-21T04:18:50.545Z,13.69751
2019-05-21T04:19:50.652Z,13.69751
2019-05-21T04:20:50.702Z,13.677368
2019-05-21T04:21:50.761Z,13.677368
2019-05-21T04:22:50.866Z,13.677368
2019-05-21T04:23:50.981Z,13.667297
2019-05-21T04:24:51.097Z,13.667297
2019-05-21T04:25:51.084Z,13.667297
2019-05-21T04:26:51.173Z,13.637085
2019-05-21T04:27:51.330Z,13.647156
2019-05-21T04:28:51.420Z,13.616943
2019-05-21T04:29:52.494Z,13.616943
2019-05-21T04:30:51.612Z,13.606873
2019-05-21T04:31:51.689Z,13.596802
2019-05-21T04:32:51.815Z,13.606873
2019-05-21T04:33:51.893Z,13.596802
2019-05-21T04:34:51.967Z,13.596802
2019-05-21T04:35:52.203Z,13.57666
2019-05-21T04:37:07.679Z,13.566589
2019-05-21T04:37:53.332Z,13.566589
2019-05-21T04:38:52.363Z,13.566589
2019-05-21T04:39:52.472Z,13.546448
2019-05-21T04:40:52.513Z,13.546448
2019-05-21T04:41:52.628Z,13.566589
2019-05-21T04:42:52.651Z,13.546448
2019-05-21T04:43:52.809Z,13.546448
2019-05-21T04:44:52.820Z,13.566589
2019-05-21T04:45:52.891Z,13.546448
2019-05-21T04:46:52.896Z,13.536377
2019-05-21T04:47:52.907Z,13.546448
2019-05-21T04:48:52.915Z,13.546448
2019-05-21T04:49:52.925Z,13.566589
2019-05-21T04:50:52.971Z,13.57666
2019-05-21T04:51:53.086Z,13.596802
2019-05-21T04:52:53.050Z,13.57666
2019-05-21T04:53:53.107Z,13.57666
2019-05-21T04:54:53.115Z,13.57666
2019-05-21T04:55:53.287Z,13.566589
2019-05-21T04:56:53.322Z,13.57666
2019-05-21T04:57:53.356Z,13.57666
2019-05-21T04:58:53.393Z,13.596802
2019-05-21T04:59:53.411Z,13.606873
2019-05-21T05:00:53.421Z,13.596802
2019-05-21T05:01:53.464Z,13.57666
2019-05-21T05:02:53.497Z,13.596802
2019-05-21T05:03:53.595Z,13.596802
2019-05-21T05:04:53.613Z,13.606873
2019-05-21T05:05:53.651Z,13.606873
2019-05-21T05:06:53.711Z,13.606873
2019-05-21T05:07:53.709Z,13.596802
2019-05-21T05:08:53.718Z,13.596802
2019-05-21T05:09:53.728Z,13.616943
2019-05-21T05:10:53.754Z,13.616943
2019-05-21T05:11:53.789Z,13.616943
2019-05-21T05:12:53.806Z,13.606873
2019-05-21T05:13:53.819Z,13.596802
2019-05-21T05:14:53.820Z,13.616943
2019-05-21T05:15:53.896Z,13.596802
2019-05-21T05:16:53.882Z,13.596802
2019-05-21T05:17:53.885Z,13.616943
2019-05-21T05:18:53.914Z,13.606873
2019-05-21T05:19:53.964Z,13.596802
2019-05-21T05:20:53.980Z,13.596802
2019-05-21T05:21:54.030Z,13.606873
2019-05-21T05:22:54.033Z,13.616943
2019-05-21T05:23:54.048Z,13.606873
2019-05-21T05:24:54.075Z,13.606873
2019-05-21T05:25:54.090Z,13.606873
2019-05-21T05:26:54.119Z,13.606873
2019-05-21T05:27:54.166Z,13.616943
2019-05-21T05:28:54.182Z,13.606873
2019-05-21T05:29:54.200Z,13.606873
2019-05-21T05:30:54.223Z,13.637085
2019-05-21T05:31:54.294Z,13.647156
2019-05-21T05:32:54.375Z,13.647156
2019-05-21T05:33:54.395Z,13.637085
2019-05-21T05:34:54.457Z,13.637085
2019-05-21T05:35:54.466Z,13.637085
2019-05-21T05:36:54.506Z,13.637085
2019-05-21T05:37:54.541Z,13.606873
2019-05-21T05:38:54.573Z,13.616943
2019-05-21T05:39:54.650Z,13.606873
2019-05-21T05:40:54.729Z,13.616943
2019-05-21T05:41:54.742Z,13.606873
2019-05-21T05:42:54.781Z,13.616943
2019-05-21T05:43:54.793Z,13.616943
2019-05-21T05:44:54.794Z,13.637085
2019-05-21T05:45:54.825Z,13.616943
2019-05-21T05:46:54.834Z,13.637085
2019-05-21T05:47:54.885Z,13.637085
2019-05-21T05:48:54.946Z,13.647156
2019-05-21T05:49:54.950Z,13.637085
2019-05-21T05:50:54.959Z,13.637085
2019-05-21T05:51:54.976Z,13.647156
2019-05-21T05:52:55.026Z,13.647156
2019-05-21T05:53:55.057Z,13.667297
2019-05-21T05:54:55.080Z,13.69751
2019-05-21T05:55:55.104Z,13.677368
2019-05-21T05:56:55.127Z,13.647156
2019-05-21T05:57:55.274Z,13.647156
2019-05-21T05:58:55.318Z,13.637085
2019-05-21T05:59:55.339Z,13.606873
2019-05-21T06:00:55.360Z,13.606873
2019-05-21T06:01:55.365Z,13.616943
2019-05-21T06:02:55.401Z,13.616943
2019-05-21T06:03:55.407Z,13.616943
2019-05-21T06:04:55.418Z,13.637085
2019-05-21T06:05:55.419Z,13.637085
2019-05-21T06:06:55.585Z,13.637085
2019-05-21T06:07:59.583Z,13.606873
2019-05-21T06:08:55.739Z,13.596802
2019-05-21T06:09:55.752Z,13.606873
2019-05-21T06:10:55.757Z,13.637085
2019-05-21T06:11:55.783Z,13.647156
2019-05-21T06:12:55.826Z,13.667297
2019-05-21T06:13:55.895Z,13.667297
2019-05-21T06:14:55.950Z,13.677368
2019-05-21T06:15:56.089Z,13.667297
2019-05-21T06:16:56.117Z,13.677368
2019-05-21T06:17:56.203Z,13.677368
2019-05-21T06:18:56.241Z,13.707581
2019-05-21T06:19:56.299Z,13.727722
2019-05-21T06:20:56.299Z,13.757935
2019-05-21T06:21:56.348Z,13.788147
2019-05-21T06:22:56.403Z,13.848572
2019-05-21T06:23:56.436Z,13.858643
2019-05-21T06:24:56.455Z,13.908997
2019-05-21T06:25:56.540Z,13.969421
2019-05-21T06:26:56.569Z,13.969421
2019-05-21T06:27:56.571Z,14.009705
2019-05-21T06:28:56.597Z,14.039917
2019-05-21T06:29:56.596Z,14.0802
2019-05-21T06:30:56.599Z,14.120483
2019-05-21T06:31:56.599Z,14.130554
2019-05-21T06:32:56.621Z,14.120483
2019-05-21T06:33:56.672Z,14.070129
2019-05-21T06:34:56.704Z,14.009705
2019-05-21T06:35:56.737Z,14.039917
2019-05-21T06:36:56.758Z,14.049988
2019-05-21T06:37:57.780Z,14.049988
2019-05-21T06:38:57.903Z,14.0802
2019-05-21T06:39:56.926Z,14.120483
2019-05-21T06:40:56.931Z,14.070129
2019-05-21T06:41:56.954Z,14.070129
2019-05-21T06:42:56.979Z,14.070129
2019-05-21T06:43:56.985Z,14.039917
2019-05-21T06:44:57.072Z,14.009705
2019-05-21T06:45:57.145Z,14.039917
2019-05-21T06:46:57.150Z,14.120483
2019-05-21T06:47:57.190Z,14.150696
2019-05-21T06:48:57.175Z,14.190979
2019-05-21T06:49:57.247Z,14.251404
2019-05-21T06:50:57.256Z,14.251404
2019-05-21T06:51:57.262Z,14.231262
2019-05-21T06:52:57.294Z,14.20105
2019-05-21T06:53:57.345Z,14.180908
2019-05-21T06:54:57.430Z,14.180908
2019-05-21T06:55:57.458Z,14.190979
2019-05-21T06:56:57.448Z,14.150696
2019-05-21T06:57:58.450Z,14.130554
2019-05-21T06:58:57.491Z,14.120483
2019-05-21T06:59:57.556Z,14.130554
2019-05-21T07:00:57.607Z,14.120483
2019-05-21T07:01:57.612Z,14.150696
2019-05-21T07:02:57.636Z,14.120483
2019-05-21T07:03:57.648Z,14.120483
2019-05-21T07:04:57.783Z,14.110413
2019-05-21T07:05:59.386Z,14.070129
2019-05-21T07:06:57.787Z,14.070129
2019-05-21T07:07:57.817Z,14.0802
2019-05-21T07:08:57.831Z,14.049988
2019-05-21T07:09:57.950Z,14.070129
2019-05-21T07:10:57.911Z,14.049988
2019-05-21T07:11:57.919Z,14.049988
2019-05-21T07:12:57.942Z,14.039917
2019-05-21T07:13:58.075Z,14.039917
2019-05-21T07:14:59.113Z,13.999634
2019-05-21T07:15:58.109Z,13.969421
2019-05-21T07:16:58.154Z,13.939209
2019-05-21T07:17:58.178Z,13.94928
2019-05-21T07:18:58.244Z,13.94928
2019-05-21T07:19:58.288Z,13.979492
2019-05-21T07:20:58.311Z,13.999634
2019-05-21T07:22:11.361Z,14.029846
2019-05-21T07:22:59.553Z,14.029846
2019-05-21T07:23:58.473Z,14.029846
2019-05-21T07:24:58.537Z,14.009705
2019-05-21T07:25:58.599Z,14.009705
2019-05-21T07:26:58.564Z,14.039917
2019-05-21T07:27:58.575Z,14.039917
2019-05-21T07:28:58.613Z,14.039917
2019-05-21T07:29:58.717Z,14.0802
2019-05-21T07:30:58.758Z,14.049988
2019-05-21T07:31:58.779Z,14.070129
2019-05-21T07:32:58.809Z,14.070129
2019-05-21T07:33:58.898Z,14.049988
2019-05-21T07:34:59.000Z,14.039917
2019-05-21T07:35:59.041Z,13.979492
2019-05-21T07:36:59.115Z,14.009705
2019-05-21T07:37:59.159Z,14.070129
2019-05-21T07:38:59.166Z,14.110413
2019-05-21T07:39:59.209Z,14.0802
2019-05-21T07:40:59.286Z,14.070129
2019-05-21T07:41:59.352Z,14.039917
2019-05-21T07:42:59.345Z,14.049988
2019-05-21T07:43:59.482Z,14.049988
2019-05-21T07:44:59.505Z,14.009705
2019-05-21T07:45:59.563Z,14.009705
2019-05-21T07:46:59.638Z,13.999634
2019-05-21T07:47:59.667Z,14.009705
2019-05-21T07:48:59.674Z,14.039917
2019-05-21T07:49:59.687Z,14.070129
2019-05-21T07:50:59.910Z,14.070129
2019-05-21T07:51:59.702Z,14.029846
2019-05-21T07:52:59.694Z,13.999634
2019-05-21T07:53:59.729Z,14.009705
2019-05-21T07:54:59.791Z,14.029846
2019-05-21T07:55:59.815Z,14.009705
2019-05-21T07:56:59.894Z,13.979492
2019-05-21T07:57:59.971Z,13.969421
2019-05-21T07:59:00.017Z,13.94928
2019-05-21T08:00:00.021Z,13.939209
2019-05-21T08:01:01.436Z,13.939209
2019-05-21T08:02:00.057Z,13.929138
2019-05-21T08:03:00.112Z,13.858643
2019-05-21T08:04:00.181Z,13.848572
2019-05-21T08:05:00.227Z,13.818359
2019-05-21T08:06:00.426Z,13.818359
2019-05-21T08:07:01.548Z,13.798218
2019-05-21T08:08:00.533Z,13.778076
2019-05-21T08:09:12.179Z,13.757935
2019-05-21T08:10:01.682Z,13.778076
2019-05-21T08:11:00.676Z,13.798218
2019-05-21T08:12:00.754Z,13.788147
2019-05-21T08:13:01.788Z,13.788147
2019-05-21T08:14:00.841Z,13.818359
2019-05-21T08:15:00.933Z,13.798218
2019-05-21T08:16:00.982Z,13.778076
2019-05-21T08:17:01.981Z,13.798218
2019-05-21T08:18:01.027Z,13.798218
2019-05-21T08:19:01.062Z,13.82843
2019-05-21T08:20:08.975Z,13.848572
2019-05-21T08:21:01.218Z,13.858643
2019-05-21T08:22:01.258Z,13.868713
2019-05-21T08:23:01.290Z,13.868713
2019-05-21T08:24:01.296Z,13.868713
2019-05-21T08:25:01.328Z,13.888855
2019-05-21T08:26:02.382Z,13.908997
2019-05-21T08:27:01.380Z,13.939209
2019-05-21T08:28:01.447Z,13.939209
2019-05-21T08:29:01.461Z,13.94928
2019-05-21T08:30:01.499Z,13.908997
2019-05-21T08:31:02.293Z,13.858643
2019-05-21T08:32:01.526Z,13.858643
2019-05-21T08:33:01.567Z,13.888855
2019-05-21T08:34:01.578Z,13.868713
2019-05-21T08:35:01.593Z,13.868713
2019-05-21T08:36:01.605Z,13.868713
2019-05-21T08:37:01.644Z,13.868713
2019-05-21T08:38:01.727Z,13.888855
2019-05-21T08:39:01.726Z,13.908997
2019-05-21T08:40:02.732Z,13.888855
2019-05-21T08:41:01.784Z,13.858643
2019-05-21T08:42:01.794Z,13.858643
2019-05-21T08:43:01.827Z,13.848572
2019-05-21T08:44:01.831Z,13.848572
2019-05-21T08:45:02.045Z,13.888855
2019-05-21T08:46:01.934Z,13.868713
2019-05-21T08:47:02.001Z,13.858643
2019-05-21T08:48:02.062Z,13.888855
2019-05-21T08:49:02.135Z,13.929138
2019-05-21T08:50:02.136Z,13.969421
2019-05-21T08:51:02.180Z,13.979492
2019-05-21T08:52:02.200Z,13.979492
2019-05-21T08:53:02.280Z,14.029846
2019-05-21T08:54:02.304Z,14.039917
2019-05-21T08:55:02.336Z,14.070129
2019-05-21T08:56:02.364Z,14.039917
2019-05-21T08:57:02.473Z,14.070129
2019-05-21T08:58:06.768Z,14.110413
2019-05-21T08:59:02.602Z,14.120483
2019-05-21T09:00:02.601Z,14.150696
2019-05-21T09:01:02.652Z,14.150696
2019-05-21T09:02:02.745Z,14.150696
2019-05-21T09:03:02.765Z,14.160767
2019-05-21T09:04:02.942Z,14.180908
2019-05-21T09:05:02.884Z,14.20105
2019-05-21T09:06:02.903Z,14.221191
2019-05-21T09:07:02.895Z,14.221191
2019-05-21T09:08:02.976Z,14.251404
2019-05-21T09:09:03.026Z,14.261475
2019-05-21T09:10:03.023Z,14.261475
2019-05-21T09:11:03.035Z,14.281616
2019-05-21T09:12:03.049Z,14.281616
2019-05-21T09:13:03.101Z,14.311829
2019-05-21T09:14:04.180Z,14.342041
2019-05-21T09:15:03.182Z,14.342041
2019-05-21T09:16:03.189Z,14.342041
2019-05-21T09:17:03.202Z,14.342041
2019-05-21T09:18:03.241Z,14.342041
2019-05-21T09:19:03.267Z,14.311829
2019-05-21T09:20:03.369Z,14.301758
2019-05-21T09:21:03.390Z,14.281616
2019-05-21T09:22:03.406Z,14.301758
2019-05-21T09:23:03.425Z,14.301758
2019-05-21T09:24:03.494Z,14.281616
2019-05-21T09:25:03.725Z,14.261475
2019-05-21T09:26:03.545Z,14.281616
2019-05-21T09:27:03.598Z,14.281616
2019-05-21T09:28:03.615Z,14.231262
2019-05-21T09:29:03.660Z,14.251404
2019-05-21T09:30:03.701Z,14.221191
2019-05-21T09:31:03.753Z,14.221191
2019-05-21T09:32:03.759Z,14.221191
2019-05-21T09:33:03.808Z,14.221191
2019-05-21T09:34:03.848Z,14.190979
2019-05-21T09:35:03.892Z,14.160767
2019-05-21T09:36:03.927Z,14.180908
2019-05-21T09:37:18.382Z,14.180908
2019-05-21T09:38:05.184Z,14.150696
2019-05-21T09:39:04.216Z,14.0802
2019-05-21T09:40:04.287Z,14.070129
2019-05-21T09:41:04.301Z,14.110413
2019-05-21T09:42:04.329Z,14.110413
2019-05-21T09:43:04.336Z,14.110413
2019-05-21T09:44:04.416Z,14.110413
2019-05-21T09:45:04.450Z,14.120483
2019-05-21T09:46:04.472Z,14.120483
2019-05-21T09:47:04.514Z,14.130554
2019-05-21T09:48:04.578Z,14.0802
2019-05-21T09:49:04.570Z,14.110413
2019-05-21T09:50:04.838Z,14.0802
2019-05-21T09:51:04.634Z,14.070129
2019-05-21T09:52:05.633Z,14.0802
2019-05-21T09:53:04.753Z,14.0802
2019-05-21T09:54:04.781Z,14.120483
2019-05-21T09:55:04.839Z,14.130554
2019-05-21T09:56:04.940Z,14.150696
2019-05-21T09:57:04.874Z,14.150696
2019-05-21T09:58:04.896Z,14.120483
2019-05-21T09:59:05.984Z,14.130554
2019-05-21T10:00:05.051Z,14.150696
2019-05-21T10:01:05.100Z,14.160767
2019-05-21T10:02:05.183Z,14.180908
2019-05-21T10:03:05.198Z,14.180908
2019-05-21T10:04:05.212Z,14.20105
2019-05-21T10:05:05.241Z,14.221191
2019-05-21T10:06:05.269Z,14.221191
2019-05-21T10:07:05.289Z,14.251404
2019-05-21T10:08:05.284Z,14.301758
2019-05-21T10:09:05.293Z,14.301758
2019-05-21T10:10:05.406Z,14.311829
2019-05-21T10:11:05.545Z,14.33197
2019-05-21T10:12:05.488Z,14.281616
2019-05-21T10:13:05.512Z,14.301758
2019-05-21T10:14:05.512Z,14.281616
2019-05-21T10:15:05.556Z,14.261475
2019-05-21T10:16:05.641Z,14.261475
2019-05-21T10:17:05.662Z,14.301758
2019-05-21T10:18:05.710Z,14.251404
2019-05-21T10:19:05.718Z,14.231262
2019-05-21T10:20:05.724Z,14.231262
2019-05-21T10:21:05.792Z,14.20105
2019-05-21T10:22:05.899Z,14.221191
2019-05-21T10:23:05.842Z,14.231262
2019-05-21T10:24:05.872Z,14.231262
2019-05-21T10:25:05.866Z,14.251404
2019-05-21T10:26:05.888Z,14.311829
2019-05-21T10:27:05.897Z,14.281616
2019-05-21T10:28:05.912Z,14.281616
2019-05-21T10:29:05.965Z,14.301758
2019-05-21T10:30:06.010Z,14.301758
2019-05-21T10:31:06.083Z,14.311829
2019-05-21T10:32:06.110Z,14.301758
2019-05-21T10:33:06.097Z,14.301758
2019-05-21T10:34:06.153Z,14.342041
2019-05-21T10:35:06.405Z,14.382324
2019-05-21T10:36:06.296Z,14.382324
2019-05-21T10:37:06.386Z,14.372253
2019-05-21T10:38:06.393Z,14.382324
2019-05-21T10:39:06.395Z,14.342041
2019-05-21T10:40:06.422Z,14.382324
2019-05-21T10:41:06.451Z,14.432678
2019-05-21T10:42:06.508Z,14.45282
2019-05-21T10:43:06.548Z,14.493103
2019-05-21T10:44:06.552Z,14.513245
2019-05-21T10:45:06.549Z,14.483032
2019-05-21T10:46:06.549Z,14.493103
2019-05-21T10:47:06.664Z,14.513245
2019-05-21T10:48:06.816Z,14.493103
2019-05-21T10:49:06.663Z,14.493103
2019-05-21T10:50:06.664Z,14.523315
2019-05-21T10:51:06.679Z,14.513245
2019-05-21T10:52:06.700Z,14.513245
2019-05-21T10:53:06.725Z,14.513245
2019-05-21T10:54:06.742Z,14.533386
2019-05-21T10:55:06.784Z,14.513245
2019-05-21T10:56:06.938Z,14.513245
2019-05-21T10:57:07.086Z,14.513245
2019-05-21T10:58:07.094Z,14.523315
2019-05-21T10:59:07.119Z,14.563599
2019-05-21T11:00:07.120Z,14.553528
2019-05-21T11:01:08.150Z,14.58374
2019-05-21T11:02:07.204Z,14.553528
2019-05-21T11:03:07.277Z,14.58374
2019-05-21T11:04:07.277Z,14.593811
2019-05-21T11:05:07.292Z,14.613953
2019-05-21T11:06:10.339Z,14.593811
2019-05-21T11:07:07.360Z,14.613953
2019-05-21T11:08:24.255Z,14.624023
2019-05-21T11:09:08.535Z,14.634094
2019-05-21T11:10:07.904Z,14.664307
2019-05-21T11:11:07.620Z,14.624023
2019-05-21T11:12:08.650Z,14.624023
2019-05-21T11:13:07.687Z,14.634094
2019-05-21T11:14:07.683Z,14.664307
2019-05-21T11:15:07.771Z,14.634094
2019-05-21T11:16:07.861Z,14.634094
2019-05-21T11:17:07.956Z,14.664307
2019-05-21T11:18:10.873Z,14.684448
2019-05-21T11:19:08.028Z,14.734802
2019-05-21T11:20:08.046Z,14.765015
2019-05-21T11:21:08.091Z,14.765015
2019-05-21T11:22:08.119Z,14.785156
2019-05-21T11:23:08.177Z,14.785156
2019-05-21T11:24:08.193Z,14.815369
2019-05-21T11:25:08.245Z,14.805298
2019-05-21T11:26:08.248Z,14.815369
2019-05-21T11:27:08.250Z,14.845581